sensor_id;sensor_type;location;lat;lon;timestamp;P1;durP1;ratioP1;P2;durP2;ratioP2
27213;SDS011;14723;55.814;37.460;2023-04-29T00:00:56;5.00;;;2.63;;
27213;SDS011;14723;55.814;37.460;2023-04-29T00:04:04;3.97;;;2.70;;
27213;SDS011;14723;55.814;37.460;2023-04-29T00:07:11;3.78;;;2.30;;
27213;SDS011;14723;55.814;37.460;2023-04-29T00:10:17;3.67;;;3.03;;
27213;SDS011;14723;55.814;37.460;2023-04-29T00:13:22;4.75;;;2.20;;
27213;SDS011;14723;55.814;37.460;2023-04-29T00:16:28;2.78;;;2.50;;
27213;SDS011;14723;55.814;37.460;2023-04-29T00:19:36;3.63;;;2.15;;
27213;SDS011;14723;55.814;37.460;2023-04-29T00:25:47;2.50;;;1.90;;
27213;SDS011;14723;55.814;37.460;2023-04-29T00:28:54;2.00;;;1.83;;
27213;SDS011;14723;55.814;37.460;2023-04-29T00:32:00;2.05;;;1.88;;
27213;SDS011;14723;55.814;37.460;2023-04-29T00:35:08;2.00;;;1.85;;
27213;SDS011;14723;55.814;37.460;2023-04-29T00:38:14;3.60;;;1.77;;
27213;SDS011;14723;55.814;37.460;2023-04-29T00:41:19;1.85;;;1.70;;
27213;SDS011;14723;55.814;37.460;2023-04-29T00:44:25;1.80;;;1.70;;
27213;SDS011;14723;55.814;37.460;2023-04-29T00:47:31;2.08;;;1.88;;
27213;SDS011;14723;55.814;37.460;2023-04-29T00:50:38;3.13;;;2.10;;
27213;SDS011;14723;55.814;37.460;2023-04-29T00:53:44;2.80;;;2.05;;
27213;SDS011;14723;55.814;37.460;2023-04-29T00:56:50;2.97;;;2.67;;
27213;SDS011;14723;55.814;37.460;2023-04-29T00:59:56;2.25;;;2.05;;
27213;SDS011;14723;55.814;37.460;2023-04-29T01:03:05;2.70;;;2.50;;
27213;SDS011;14723;55.814;37.460;2023-04-29T01:06:19;2.22;;;1.92;;
27213;SDS011;14723;55.814;37.460;2023-04-29T01:09:36;2.80;;;2.22;;
27213;SDS011;14723;55.814;37.460;2023-04-29T01:12:44;2.72;;;2.05;;
27213;SDS011;14723;55.814;37.460;2023-04-29T01:15:53;2.63;;;2.30;;
27213;SDS011;14723;55.814;37.460;2023-04-29T01:19:05;2.22;;;2.03;;
27213;SDS011;14723;55.814;37.460;2023-04-29T01:22:18;7.00;;;3.13;;
27213;SDS011;14723;55.814;37.460;2023-04-29T01:25:27;1.92;;;1.77;;
27213;SDS011;14723;55.814;37.460;2023-04-29T01:28:42;2.75;;;2.08;;
27213;SDS011;14723;55.814;37.460;2023-04-29T01:31:51;2.13;;;1.92;;
27213;SDS011;14723;55.814;37.460;2023-04-29T01:35:05;2.33;;;1.90;;
27213;SDS011;14723;55.814;37.460;2023-04-29T01:38:16;2.97;;;1.52;;
27213;SDS011;14723;55.814;37.460;2023-04-29T01:41:30;1.73;;;1.40;;
27213;SDS011;14723;55.814;37.460;2023-04-29T01:44:46;5.03;;;1.75;;
27213;SDS011;14723;55.814;37.460;2023-04-29T01:47:55;2.25;;;1.70;;
27213;SDS011;14723;55.814;37.460;2023-04-29T01:51:02;1.95;;;1.67;;
27213;SDS011;14723;55.814;37.460;2023-04-29T01:54:08;1.73;;;1.48;;
27213;SDS011;14723;55.814;37.460;2023-04-29T01:57:17;1.92;;;1.40;;
27213;SDS011;14723;55.814;37.460;2023-04-29T02:00:29;1.52;;;1.40;;
27213;SDS011;14723;55.814;37.460;2023-04-29T02:03:35;2.53;;;1.38;;
27213;SDS011;14723;55.814;37.460;2023-04-29T02:06:43;3.22;;;1.65;;
27213;SDS011;14723;55.814;37.460;2023-04-29T02:09:51;2.42;;;1.90;;
27213;SDS011;14723;55.814;37.460;2023-04-29T02:13:00;2.17;;;1.67;;
27213;SDS011;14723;55.814;37.460;2023-04-29T02:16:08;1.60;;;1.50;;
27213;SDS011;14723;55.814;37.460;2023-04-29T02:19:32;2.25;;;2.05;;
27213;SDS011;14723;55.814;37.460;2023-04-29T02:22:38;1.50;;;1.40;;
27213;SDS011;14723;55.814;37.460;2023-04-29T02:25:43;2.05;;;1.80;;
27213;SDS011;14723;55.814;37.460;2023-04-29T02:28:53;1.60;;;1.50;;
27213;SDS011;14723;55.814;37.460;2023-04-29T02:31:58;3.95;;;1.77;;
27213;SDS011;14723;55.814;37.460;2023-04-29T02:35:04;2.90;;;1.50;;
27213;SDS011;14723;55.814;37.460;2023-04-29T02:38:10;2.92;;;1.55;;
27213;SDS011;14723;55.814;37.460;2023-04-29T02:41:16;1.85;;;1.50;;
27213;SDS011;14723;55.814;37.460;2023-04-29T02:44:25;1.73;;;1.20;;
27213;SDS011;14723;55.814;37.460;2023-04-29T02:47:31;3.83;;;1.50;;
27213;SDS011;14723;55.814;37.460;2023-04-29T02:50:36;3.25;;;1.42;;
27213;SDS011;14723;55.814;37.460;2023-04-29T02:53:42;2.00;;;1.67;;
27213;SDS011;14723;55.814;37.460;2023-04-29T02:56:47;2.97;;;1.45;;
27213;SDS011;14723;55.814;37.460;2023-04-29T02:59:56;2.45;;;1.67;;
27213;SDS011;14723;55.814;37.460;2023-04-29T03:03:02;1.88;;;1.52;;
27213;SDS011;14723;55.814;37.460;2023-04-29T03:06:08;1.48;;;1.38;;
27213;SDS011;14723;55.814;37.460;2023-04-29T03:09:14;1.92;;;1.48;;
27213;SDS011;14723;55.814;37.460;2023-04-29T03:12:20;1.65;;;1.17;;
27213;SDS011;14723;55.814;37.460;2023-04-29T03:15:28;1.35;;;1.25;;
27213;SDS011;14723;55.814;37.460;2023-04-29T03:18:33;3.85;;;1.65;;
27213;SDS011;14723;55.814;37.460;2023-04-29T03:21:38;1.88;;;1.45;;
27213;SDS011;14723;55.814;37.460;2023-04-29T03:24:44;2.33;;;1.40;;
27213;SDS011;14723;55.814;37.460;2023-04-29T03:27:50;1.52;;;1.30;;
27213;SDS011;14723;55.814;37.460;2023-04-29T03:30:58;1.83;;;1.40;;
27213;SDS011;14723;55.814;37.460;2023-04-29T03:34:04;2.10;;;1.10;;
27213;SDS011;14723;55.814;37.460;2023-04-29T03:37:13;1.20;;;1.10;;
27213;SDS011;14723;55.814;37.460;2023-04-29T03:40:26;1.42;;;1.33;;
27213;SDS011;14723;55.814;37.460;2023-04-29T03:43:32;0.90;;;0.90;;
27213;SDS011;14723;55.814;37.460;2023-04-29T03:46:40;2.15;;;1.48;;
27213;SDS011;14723;55.814;37.460;2023-04-29T03:49:46;8.65;;;1.30;;
27213;SDS011;14723;55.814;37.460;2023-04-29T03:52:52;2.15;;;1.38;;
27213;SDS011;14723;55.814;37.460;2023-04-29T03:55:59;1.85;;;1.40;;
27213;SDS011;14723;55.814;37.460;2023-04-29T03:59:04;1.88;;;1.50;;
27213;SDS011;14723;55.814;37.460;2023-04-29T04:02:14;3.67;;;1.38;;
27213;SDS011;14723;55.814;37.460;2023-04-29T04:05:20;2.05;;;1.70;;
27213;SDS011;14723;55.814;37.460;2023-04-29T04:08:32;1.65;;;1.20;;
27213;SDS011;14723;55.814;37.460;2023-04-29T04:12:04;2.35;;;1.70;;
27213;SDS011;14723;55.814;37.460;2023-04-29T04:15:10;2.38;;;1.70;;
27213;SDS011;14723;55.814;37.460;2023-04-29T04:18:18;1.63;;;1.20;;
27213;SDS011;14723;55.814;37.460;2023-04-29T04:21:23;4.15;;;2.03;;
27213;SDS011;14723;55.814;37.460;2023-04-29T04:24:36;2.90;;;1.80;;
27213;SDS011;14723;55.814;37.460;2023-04-29T04:27:41;4.20;;;1.90;;
27213;SDS011;14723;55.814;37.460;2023-04-29T04:30:57;2.83;;;1.63;;
27213;SDS011;14723;55.814;37.460;2023-04-29T04:34:05;2.97;;;1.75;;
27213;SDS011;14723;55.814;37.460;2023-04-29T04:37:10;2.47;;;1.70;;
27213;SDS011;14723;55.814;37.460;2023-04-29T04:40:21;2.90;;;2.35;;
27213;SDS011;14723;55.814;37.460;2023-04-29T04:43:50;2.92;;;1.88;;
27213;SDS011;14723;55.814;37.460;2023-04-29T04:47:34;2.00;;;1.60;;
27213;SDS011;14723;55.814;37.460;2023-04-29T04:50:53;3.45;;;2.00;;
27213;SDS011;14723;55.814;37.460;2023-04-29T04:54:00;4.43;;;2.15;;
27213;SDS011;14723;55.814;37.460;2023-04-29T04:57:07;3.72;;;2.30;;
27213;SDS011;14723;55.814;37.460;2023-04-29T05:00:12;2.22;;;1.85;;
27213;SDS011;14723;55.814;37.460;2023-04-29T05:03:18;4.60;;;2.10;;
27213;SDS011;14723;55.814;37.460;2023-04-29T05:06:27;3.15;;;2.30;;
27213;SDS011;14723;55.814;37.460;2023-04-29T05:09:33;4.68;;;2.40;;
27213;SDS011;14723;55.814;37.460;2023-04-29T05:12:39;3.65;;;2.13;;
27213;SDS011;14723;55.814;37.460;2023-04-29T05:15:44;4.97;;;2.63;;
27213;SDS011;14723;55.814;37.460;2023-04-29T05:18:54;4.18;;;2.78;;
27213;SDS011;14723;55.814;37.460;2023-04-29T05:22:07;5.07;;;2.47;;
27213;SDS011;14723;55.814;37.460;2023-04-29T05:25:14;3.30;;;2.70;;
27213;SDS011;14723;55.814;37.460;2023-04-29T05:28:21;3.78;;;2.47;;
27213;SDS011;14723;55.814;37.460;2023-04-29T05:31:30;7.72;;;4.13;;
27213;SDS011;14723;55.814;37.460;2023-04-29T05:34:38;8.95;;;6.30;;
27213;SDS011;14723;55.814;37.460;2023-04-29T05:37:46;10.55;;;8.30;;
27213;SDS011;14723;55.814;37.460;2023-04-29T05:41:06;10.98;;;8.50;;
27213;SDS011;14723;55.814;37.460;2023-04-29T05:44:34;14.38;;;10.45;;
27213;SDS011;14723;55.814;37.460;2023-04-29T05:47:40;15.20;;;9.50;;
27213;SDS011;14723;55.814;37.460;2023-04-29T05:50:46;19.88;;;13.27;;
27213;SDS011;14723;55.814;37.460;2023-04-29T05:53:55;16.73;;;13.43;;
27213;SDS011;14723;55.814;37.460;2023-04-29T05:57:03;18.60;;;13.95;;
27213;SDS011;14723;55.814;37.460;2023-04-29T06:00:09;14.13;;;11.52;;
27213;SDS011;14723;55.814;37.460;2023-04-29T06:03:15;12.40;;;9.30;;
27213;SDS011;14723;55.814;37.460;2023-04-29T06:06:24;9.63;;;8.07;;
27213;SDS011;14723;55.814;37.460;2023-04-29T06:10:03;13.52;;;8.50;;
27213;SDS011;14723;55.814;37.460;2023-04-29T06:13:09;9.63;;;7.13;;
27213;SDS011;14723;55.814;37.460;2023-04-29T06:16:14;6.28;;;5.28;;
27213;SDS011;14723;55.814;37.460;2023-04-29T06:19:20;5.93;;;4.05;;
27213;SDS011;14723;55.814;37.460;2023-04-29T06:22:26;5.05;;;4.45;;
27213;SDS011;14723;55.814;37.460;2023-04-29T06:25:35;3.75;;;3.35;;
27213;SDS011;14723;55.814;37.460;2023-04-29T06:28:42;4.05;;;3.40;;
27213;SDS011;14723;55.814;37.460;2023-04-29T06:31:49;5.00;;;3.45;;
27213;SDS011;14723;55.814;37.460;2023-04-29T06:34:55;4.82;;;3.55;;
27213;SDS011;14723;55.814;37.460;2023-04-29T06:38:19;4.50;;;2.97;;
27213;SDS011;14723;55.814;37.460;2023-04-29T06:41:46;4.25;;;3.38;;
27213;SDS011;14723;55.814;37.460;2023-04-29T06:45:18;3.85;;;3.17;;
27213;SDS011;14723;55.814;37.460;2023-04-29T06:48:40;4.20;;;3.08;;
27213;SDS011;14723;55.814;37.460;2023-04-29T06:51:46;5.05;;;3.25;;
27213;SDS011;14723;55.814;37.460;2023-04-29T06:54:51;4.03;;;2.97;;
27213;SDS011;14723;55.814;37.460;2023-04-29T06:58:00;3.45;;;2.88;;
27213;SDS011;14723;55.814;37.460;2023-04-29T07:01:05;4.90;;;2.88;;
27213;SDS011;14723;55.814;37.460;2023-04-29T07:04:11;6.28;;;4.65;;
27213;SDS011;14723;55.814;37.460;2023-04-29T07:07:17;4.03;;;2.67;;
27213;SDS011;14723;55.814;37.460;2023-04-29T07:10:22;3.63;;;2.92;;
27213;SDS011;14723;55.814;37.460;2023-04-29T07:13:34;4.72;;;3.25;;
27213;SDS011;14723;55.814;37.460;2023-04-29T07:16:40;4.60;;;3.30;;
27213;SDS011;14723;55.814;37.460;2023-04-29T07:19:45;5.40;;;3.25;;
27213;SDS011;14723;55.814;37.460;2023-04-29T07:22:51;4.13;;;2.85;;
27213;SDS011;14723;55.814;37.460;2023-04-29T07:25:58;3.88;;;2.60;;
27213;SDS011;14723;55.814;37.460;2023-04-29T07:29:06;3.65;;;2.85;;
27213;SDS011;14723;55.814;37.460;2023-04-29T07:32:12;7.18;;;3.38;;
27213;SDS011;14723;55.814;37.460;2023-04-29T07:35:17;7.45;;;3.63;;
27213;SDS011;14723;55.814;37.460;2023-04-29T07:38:22;6.45;;;2.80;;
27213;SDS011;14723;55.814;37.460;2023-04-29T07:41:28;3.53;;;2.78;;
27213;SDS011;14723;55.814;37.460;2023-04-29T07:44:36;4.60;;;3.08;;
27213;SDS011;14723;55.814;37.460;2023-04-29T07:47:42;5.57;;;2.70;;
27213;SDS011;14723;55.814;37.460;2023-04-29T07:50:48;3.05;;;2.58;;
27213;SDS011;14723;55.814;37.460;2023-04-29T07:53:53;3.50;;;2.53;;
27213;SDS011;14723;55.814;37.460;2023-04-29T07:56:59;2.97;;;2.25;;
27213;SDS011;14723;55.814;37.460;2023-04-29T08:00:08;4.75;;;2.45;;
27213;SDS011;14723;55.814;37.460;2023-04-29T08:03:16;3.42;;;2.25;;
27213;SDS011;14723;55.814;37.460;2023-04-29T08:06:22;3.78;;;2.70;;
27213;SDS011;14723;55.814;37.460;2023-04-29T08:09:28;5.75;;;2.40;;
27213;SDS011;14723;55.814;37.460;2023-04-29T08:12:34;4.15;;;2.13;;
27213;SDS011;14723;55.814;37.460;2023-04-29T08:15:43;6.32;;;2.60;;
27213;SDS011;14723;55.814;37.460;2023-04-29T08:18:49;3.15;;;2.85;;
27213;SDS011;14723;55.814;37.460;2023-04-29T08:21:55;4.97;;;2.50;;
27213;SDS011;14723;55.814;37.460;2023-04-29T08:25:02;2.92;;;2.38;;
27213;SDS011;14723;55.814;37.460;2023-04-29T08:28:08;5.70;;;2.30;;
27213;SDS011;14723;55.814;37.460;2023-04-29T08:31:19;3.22;;;2.47;;
27213;SDS011;14723;55.814;37.460;2023-04-29T08:34:25;5.40;;;2.58;;
27213;SDS011;14723;55.814;37.460;2023-04-29T08:37:31;4.60;;;2.42;;
27213;SDS011;14723;55.814;37.460;2023-04-29T08:40:40;2.08;;;1.88;;
27213;SDS011;14723;55.814;37.460;2023-04-29T08:43:46;3.88;;;2.58;;
27213;SDS011;14723;55.814;37.460;2023-04-29T08:46:55;4.03;;;2.30;;
27213;SDS011;14723;55.814;37.460;2023-04-29T08:50:02;4.53;;;1.92;;
27213;SDS011;14723;55.814;37.460;2023-04-29T08:53:09;4.90;;;2.15;;
27213;SDS011;14723;55.814;37.460;2023-04-29T08:56:15;5.82;;;2.40;;
27213;SDS011;14723;55.814;37.460;2023-04-29T08:59:22;3.28;;;2.40;;
27213;SDS011;14723;55.814;37.460;2023-04-29T09:02:30;3.22;;;2.33;;
27213;SDS011;14723;55.814;37.460;2023-04-29T09:05:35;6.82;;;2.95;;
27213;SDS011;14723;55.814;37.460;2023-04-29T09:08:43;4.88;;;2.70;;
27213;SDS011;14723;55.814;37.460;2023-04-29T09:11:48;3.92;;;2.60;;
27213;SDS011;14723;55.814;37.460;2023-04-29T09:14:54;4.32;;;3.35;;
27213;SDS011;14723;55.814;37.460;2023-04-29T09:18:03;5.88;;;3.33;;
27213;SDS011;14723;55.814;37.460;2023-04-29T09:21:12;5.53;;;2.63;;
27213;SDS011;14723;55.814;37.460;2023-04-29T09:24:23;4.22;;;2.45;;
27213;SDS011;14723;55.814;37.460;2023-04-29T09:27:29;4.75;;;2.67;;
27213;SDS011;14723;55.814;37.460;2023-04-29T09:30:44;4.28;;;2.17;;
27213;SDS011;14723;55.814;37.460;2023-04-29T09:33:53;4.95;;;2.20;;
27213;SDS011;14723;55.814;37.460;2023-04-29T09:37:00;3.33;;;2.15;;
27213;SDS011;14723;55.814;37.460;2023-04-29T09:40:06;4.97;;;2.42;;
27213;SDS011;14723;55.814;37.460;2023-04-29T09:43:20;4.38;;;2.60;;
27213;SDS011;14723;55.814;37.460;2023-04-29T09:46:26;6.25;;;2.17;;
27213;SDS011;14723;55.814;37.460;2023-04-29T09:49:34;4.40;;;2.47;;
27213;SDS011;14723;55.814;37.460;2023-04-29T09:52:42;2.88;;;1.90;;
27213;SDS011;14723;55.814;37.460;2023-04-29T09:55:57;2.30;;;2.03;;
27213;SDS011;14723;55.814;37.460;2023-04-29T09:59:06;2.97;;;2.20;;
27213;SDS011;14723;55.814;37.460;2023-04-29T10:02:13;6.10;;;2.42;;
27213;SDS011;14723;55.814;37.460;2023-04-29T10:05:24;5.32;;;3.20;;
27213;SDS011;14723;55.814;37.460;2023-04-29T10:08:31;4.85;;;2.15;;
27213;SDS011;14723;55.814;37.460;2023-04-29T10:11:37;2.53;;;1.90;;
27213;SDS011;14723;55.814;37.460;2023-04-29T10:14:45;4.47;;;1.98;;
27213;SDS011;14723;55.814;37.460;2023-04-29T10:17:54;6.47;;;2.15;;
27213;SDS011;14723;55.814;37.460;2023-04-29T10:21:02;3.53;;;2.17;;
27213;SDS011;14723;55.814;37.460;2023-04-29T10:24:11;3.78;;;2.30;;
27213;SDS011;14723;55.814;37.460;2023-04-29T10:27:17;5.45;;;1.92;;
27213;SDS011;14723;55.814;37.460;2023-04-29T10:30:25;6.20;;;2.42;;
27213;SDS011;14723;55.814;37.460;2023-04-29T10:33:32;2.88;;;1.90;;
27213;SDS011;14723;55.814;37.460;2023-04-29T10:36:40;4.47;;;2.13;;
27213;SDS011;14723;55.814;37.460;2023-04-29T10:39:47;3.42;;;2.00;;
27213;SDS011;14723;55.814;37.460;2023-04-29T10:42:54;6.53;;;2.33;;
27213;SDS011;14723;55.814;37.460;2023-04-29T10:46:16;5.22;;;2.53;;
27213;SDS011;14723;55.814;37.460;2023-04-29T10:49:22;4.28;;;2.28;;
27213;SDS011;14723;55.814;37.460;2023-04-29T10:52:30;2.50;;;2.13;;
27213;SDS011;14723;55.814;37.460;2023-04-29T10:55:36;4.18;;;2.33;;
27213;SDS011;14723;55.814;37.460;2023-04-29T10:58:42;4.10;;;2.60;;
27213;SDS011;14723;55.814;37.460;2023-04-29T11:01:48;4.82;;;2.30;;
27213;SDS011;14723;55.814;37.460;2023-04-29T11:05:06;6.25;;;2.00;;
27213;SDS011;14723;55.814;37.460;2023-04-29T11:08:18;4.65;;;2.50;;
27213;SDS011;14723;55.814;37.460;2023-04-29T11:11:25;3.83;;;2.13;;
27213;SDS011;14723;55.814;37.460;2023-04-29T11:14:31;3.97;;;2.65;;
27213;SDS011;14723;55.814;37.460;2023-04-29T11:17:39;7.07;;;2.83;;
27213;SDS011;14723;55.814;37.460;2023-04-29T11:24:07;2.60;;;2.15;;
27213;SDS011;14723;55.814;37.460;2023-04-29T11:27:14;2.67;;;2.00;;
27213;SDS011;14723;55.814;37.460;2023-04-29T11:30:19;2.80;;;1.90;;
27213;SDS011;14723;55.814;37.460;2023-04-29T11:33:26;5.38;;;2.00;;
27213;SDS011;14723;55.814;37.460;2023-04-29T11:36:32;3.47;;;1.80;;
27213;SDS011;14723;55.814;37.460;2023-04-29T11:39:40;4.15;;;2.10;;
27213;SDS011;14723;55.814;37.460;2023-04-29T11:42:46;4.50;;;2.00;;
27213;SDS011;14723;55.814;37.460;2023-04-29T11:45:51;3.70;;;2.17;;
27213;SDS011;14723;55.814;37.460;2023-04-29T11:48:57;5.57;;;2.20;;
27213;SDS011;14723;55.814;37.460;2023-04-29T11:52:04;3.65;;;1.42;;
27213;SDS011;14723;55.814;37.460;2023-04-29T11:55:12;1.58;;;1.45;;
27213;SDS011;14723;55.814;37.460;2023-04-29T11:58:17;3.53;;;1.83;;
27213;SDS011;14723;55.814;37.460;2023-04-29T12:01:24;2.15;;;1.77;;
27213;SDS011;14723;55.814;37.460;2023-04-29T12:04:30;3.10;;;1.88;;
27213;SDS011;14723;55.814;37.460;2023-04-29T12:07:36;4.90;;;1.63;;
27213;SDS011;14723;55.814;37.460;2023-04-29T12:10:44;4.18;;;1.98;;
27213;SDS011;14723;55.814;37.460;2023-04-29T12:13:51;3.53;;;1.50;;
27213;SDS011;14723;55.814;37.460;2023-04-29T12:16:57;2.60;;;1.80;;
27213;SDS011;14723;55.814;37.460;2023-04-29T12:20:03;4.40;;;1.90;;
27213;SDS011;14723;55.814;37.460;2023-04-29T12:23:12;2.00;;;1.70;;
27213;SDS011;14723;55.814;37.460;2023-04-29T12:26:20;5.10;;;1.90;;
27213;SDS011;14723;55.814;37.460;2023-04-29T12:29:26;3.97;;;2.10;;
27213;SDS011;14723;55.814;37.460;2023-04-29T12:32:31;4.00;;;2.13;;
27213;SDS011;14723;55.814;37.460;2023-04-29T12:35:38;3.13;;;1.85;;
27213;SDS011;14723;55.814;37.460;2023-04-29T12:38:43;2.95;;;1.77;;
27213;SDS011;14723;55.814;37.460;2023-04-29T12:41:53;2.70;;;1.77;;
27213;SDS011;14723;55.814;37.460;2023-04-29T12:44:59;1.80;;;1.70;;
27213;SDS011;14723;55.814;37.460;2023-04-29T12:48:06;2.95;;;1.75;;
27213;SDS011;14723;55.814;37.460;2023-04-29T12:51:26;3.78;;;2.33;;
27213;SDS011;14723;55.814;37.460;2023-04-29T12:54:33;2.33;;;2.00;;
27213;SDS011;14723;55.814;37.460;2023-04-29T12:57:41;4.55;;;2.08;;
27213;SDS011;14723;55.814;37.460;2023-04-29T13:00:48;3.22;;;2.45;;
27213;SDS011;14723;55.814;37.460;2023-04-29T13:03:54;6.63;;;2.15;;
27213;SDS011;14723;55.814;37.460;2023-04-29T13:06:59;2.30;;;1.80;;
27213;SDS011;14723;55.814;37.460;2023-04-29T13:10:06;2.30;;;2.00;;
27213;SDS011;14723;55.814;37.460;2023-04-29T13:13:16;2.60;;;1.70;;
27213;SDS011;14723;55.814;37.460;2023-04-29T13:16:22;7.07;;;2.03;;
27213;SDS011;14723;55.814;37.460;2023-04-29T13:19:28;3.88;;;1.90;;
27213;SDS011;14723;55.814;37.460;2023-04-29T13:22:52;17.15;;;2.88;;
27213;SDS011;14723;55.814;37.460;2023-04-29T13:25:58;2.30;;;2.10;;
27213;SDS011;14723;55.814;37.460;2023-04-29T13:29:06;2.70;;;2.00;;
27213;SDS011;14723;55.814;37.460;2023-04-29T13:32:11;5.53;;;1.80;;
27213;SDS011;14723;55.814;37.460;2023-04-29T13:35:19;2.83;;;1.60;;
27213;SDS011;14723;55.814;37.460;2023-04-29T13:38:24;2.35;;;1.52;;
27213;SDS011;14723;55.814;37.460;2023-04-29T13:41:30;2.90;;;1.83;;
27213;SDS011;14723;55.814;37.460;2023-04-29T13:44:39;2.25;;;1.63;;
27213;SDS011;14723;55.814;37.460;2023-04-29T13:47:54;1.83;;;1.70;;
27213;SDS011;14723;55.814;37.460;2023-04-29T13:51:17;2.75;;;1.70;;
27213;SDS011;14723;55.814;37.460;2023-04-29T13:54:25;2.75;;;2.00;;
27213;SDS011;14723;55.814;37.460;2023-04-29T13:57:33;4.40;;;1.58;;
27213;SDS011;14723;55.814;37.460;2023-04-29T14:01:02;4.35;;;1.83;;
27213;SDS011;14723;55.814;37.460;2023-04-29T14:04:28;1.90;;;1.60;;
27213;SDS011;14723;55.814;37.460;2023-04-29T14:07:34;4.78;;;1.80;;
27213;SDS011;14723;55.814;37.460;2023-04-29T14:10:39;2.88;;;1.45;;
27213;SDS011;14723;55.814;37.460;2023-04-29T14:13:44;6.07;;;1.65;;
27213;SDS011;14723;55.814;37.460;2023-04-29T14:16:52;2.50;;;1.52;;
27213;SDS011;14723;55.814;37.460;2023-04-29T14:19:58;1.63;;;1.40;;
27213;SDS011;14723;55.814;37.460;2023-04-29T14:23:04;4.13;;;1.52;;
27213;SDS011;14723;55.814;37.460;2023-04-29T14:26:10;4.32;;;1.80;;
27213;SDS011;14723;55.814;37.460;2023-04-29T14:29:19;2.05;;;1.20;;
27213;SDS011;14723;55.814;37.460;2023-04-29T14:32:27;4.05;;;1.77;;
27213;SDS011;14723;55.814;37.460;2023-04-29T14:35:33;7.68;;;1.73;;
27213;SDS011;14723;55.814;37.460;2023-04-29T14:38:38;4.03;;;1.80;;
27213;SDS011;14723;55.814;37.460;2023-04-29T14:41:43;1.92;;;1.38;;
27213;SDS011;14723;55.814;37.460;2023-04-29T14:44:49;2.70;;;1.80;;
27213;SDS011;14723;55.814;37.460;2023-04-29T14:47:58;4.97;;;1.80;;
27213;SDS011;14723;55.814;37.460;2023-04-29T14:51:04;2.10;;;1.70;;
27213;SDS011;14723;55.814;37.460;2023-04-29T14:54:10;3.63;;;1.50;;
27213;SDS011;14723;55.814;37.460;2023-04-29T14:57:15;2.38;;;1.73;;
27213;SDS011;14723;55.814;37.460;2023-04-29T15:00:21;3.03;;;1.90;;
27213;SDS011;14723;55.814;37.460;2023-04-29T15:03:29;3.50;;;1.70;;
27213;SDS011;14723;55.814;37.460;2023-04-29T15:06:40;3.78;;;1.15;;
27213;SDS011;14723;55.814;37.460;2023-04-29T15:09:46;2.55;;;1.48;;
27213;SDS011;14723;55.814;37.460;2023-04-29T15:12:51;4.05;;;2.22;;
27213;SDS011;14723;55.814;37.460;2023-04-29T15:15:57;5.00;;;1.80;;
27213;SDS011;14723;55.814;37.460;2023-04-29T15:19:05;2.42;;;1.58;;
27213;SDS011;14723;55.814;37.460;2023-04-29T15:22:10;1.73;;;1.25;;
27213;SDS011;14723;55.814;37.460;2023-04-29T15:25:16;2.75;;;1.38;;
27213;SDS011;14723;55.814;37.460;2023-04-29T15:28:23;2.43;;;1.30;;
27213;SDS011;14723;55.814;37.460;2023-04-29T15:31:29;5.22;;;1.30;;
27213;SDS011;14723;55.814;37.460;2023-04-29T15:34:37;3.38;;;1.58;;
27213;SDS011;14723;55.814;37.460;2023-04-29T15:37:43;3.45;;;1.67;;
27213;SDS011;14723;55.814;37.460;2023-04-29T15:40:48;1.33;;;1.23;;
27213;SDS011;14723;55.814;37.460;2023-04-29T15:43:58;4.25;;;1.48;;
27213;SDS011;14723;55.814;37.460;2023-04-29T15:47:03;3.58;;;1.27;;
27213;SDS011;14723;55.814;37.460;2023-04-29T15:50:12;4.60;;;1.83;;
27213;SDS011;14723;55.814;37.460;2023-04-29T15:53:17;2.67;;;1.73;;
27213;SDS011;14723;55.814;37.460;2023-04-29T15:56:23;6.05;;;1.58;;
27213;SDS011;14723;55.814;37.460;2023-04-29T15:59:28;10.40;;;2.30;;
27213;SDS011;14723;55.814;37.460;2023-04-29T16:02:34;5.07;;;1.80;;
27213;SDS011;14723;55.814;37.460;2023-04-29T16:05:42;8.88;;;2.45;;
27213;SDS011;14723;55.814;37.460;2023-04-29T16:08:47;4.00;;;2.30;;
27213;SDS011;14723;55.814;37.460;2023-04-29T16:11:53;5.50;;;2.97;;
27213;SDS011;14723;55.814;37.460;2023-04-29T16:14:59;6.55;;;1.77;;
27213;SDS011;14723;55.814;37.460;2023-04-29T16:18:05;4.72;;;1.75;;
27213;SDS011;14723;55.814;37.460;2023-04-29T16:21:13;5.15;;;1.88;;
27213;SDS011;14723;55.814;37.460;2023-04-29T16:24:18;2.75;;;1.73;;
27213;SDS011;14723;55.814;37.460;2023-04-29T16:27:23;7.07;;;2.40;;
27213;SDS011;14723;55.814;37.460;2023-04-29T16:30:31;4.38;;;1.95;;
27213;SDS011;14723;55.814;37.460;2023-04-29T16:33:36;5.53;;;2.35;;
27213;SDS011;14723;55.814;37.460;2023-04-29T16:36:44;9.88;;;2.40;;
27213;SDS011;14723;55.814;37.460;2023-04-29T16:39:50;3.22;;;2.35;;
27213;SDS011;14723;55.814;37.460;2023-04-29T16:42:56;6.15;;;1.92;;
27213;SDS011;14723;55.814;37.460;2023-04-29T16:46:01;8.13;;;2.45;;
27213;SDS011;14723;55.814;37.460;2023-04-29T16:49:07;7.13;;;2.10;;
27213;SDS011;14723;55.814;37.460;2023-04-29T16:52:15;12.65;;;2.17;;
27213;SDS011;14723;55.814;37.460;2023-04-29T16:55:21;4.10;;;1.83;;
27213;SDS011;14723;55.814;37.460;2023-04-29T16:58:27;3.83;;;2.00;;
27213;SDS011;14723;55.814;37.460;2023-04-29T17:01:32;6.75;;;2.30;;
27213;SDS011;14723;55.814;37.460;2023-04-29T17:04:38;8.18;;;2.65;;
27213;SDS011;14723;55.814;37.460;2023-04-29T17:07:47;11.82;;;2.45;;
27213;SDS011;14723;55.814;37.460;2023-04-29T17:10:53;17.45;;;3.08;;
27213;SDS011;14723;55.814;37.460;2023-04-29T17:13:58;8.35;;;2.47;;
27213;SDS011;14723;55.814;37.460;2023-04-29T17:17:04;10.85;;;2.80;;
27213;SDS011;14723;55.814;37.460;2023-04-29T17:20:10;12.38;;;3.80;;
27213;SDS011;14723;55.814;37.460;2023-04-29T17:23:19;10.52;;;2.67;;
27213;SDS011;14723;55.814;37.460;2023-04-29T17:26:24;8.57;;;3.08;;
27213;SDS011;14723;55.814;37.460;2023-04-29T17:29:29;12.32;;;2.53;;
27213;SDS011;14723;55.814;37.460;2023-04-29T17:32:35;8.10;;;2.33;;
27213;SDS011;14723;55.814;37.460;2023-04-29T17:35:41;13.10;;;2.80;;
27213;SDS011;14723;55.814;37.460;2023-04-29T17:38:50;8.05;;;2.97;;
27213;SDS011;14723;55.814;37.460;2023-04-29T17:41:55;7.50;;;3.03;;
27213;SDS011;14723;55.814;37.460;2023-04-29T17:45:00;7.40;;;3.10;;
27213;SDS011;14723;55.814;37.460;2023-04-29T17:48:06;10.57;;;2.85;;
27213;SDS011;14723;55.814;37.460;2023-04-29T17:51:12;7.90;;;2.63;;
27213;SDS011;14723;55.814;37.460;2023-04-29T17:54:20;7.15;;;2.70;;
27213;SDS011;14723;55.814;37.460;2023-04-29T17:57:27;7.45;;;2.85;;
27213;SDS011;14723;55.814;37.460;2023-04-29T18:00:33;8.25;;;3.28;;
27213;SDS011;14723;55.814;37.460;2023-04-29T18:03:39;7.28;;;2.40;;
27213;SDS011;14723;55.814;37.460;2023-04-29T18:06:44;8.57;;;3.20;;
27213;SDS011;14723;55.814;37.460;2023-04-29T18:09:52;8.00;;;2.67;;
27213;SDS011;14723;55.814;37.460;2023-04-29T18:12:59;8.15;;;2.60;;
27213;SDS011;14723;55.814;37.460;2023-04-29T18:16:05;10.07;;;3.67;;
27213;SDS011;14723;55.814;37.460;2023-04-29T18:19:11;9.10;;;3.17;;
27213;SDS011;14723;55.814;37.460;2023-04-29T18:22:16;13.55;;;3.00;;
27213;SDS011;14723;55.814;37.460;2023-04-29T18:25:24;8.88;;;3.20;;
27213;SDS011;14723;55.814;37.460;2023-04-29T18:28:30;13.73;;;3.97;;
27213;SDS011;14723;55.814;37.460;2023-04-29T18:31:35;16.00;;;4.05;;
27213;SDS011;14723;55.814;37.460;2023-04-29T18:34:40;12.05;;;4.10;;
27213;SDS011;14723;55.814;37.460;2023-04-29T18:37:46;10.57;;;4.28;;
27213;SDS011;14723;55.814;37.460;2023-04-29T18:40:54;13.48;;;4.10;;